Time;durP1;ratioP1;P1;durP2;ratioP2;P2;SDS_P1;SDS_P2;PMS_P1;PMS_P2;Temp;Humidity;BMP_temperature;BMP_pressure;BME280_temperature;BME280_humidity;BME280_pressure;Samples;Min_cycle;Max_cycle;Signal;HPM_P1;HPM_P2
2024/02/26 00:01:12;;;;;;;3.55;1.33;;;;;;;18.80;41.54;99721.75;4983359;28;20562;-69
2024/02/26 00:03:38;;;;;;;4.43;1.30;;;;;;;18.59;41.48;99687.81;4998886;28;20033;-72
2024/02/26 00:06:04;;;;;;;3.80;1.33;;;;;;;18.69;41.47;99709.66;4999818;28;20040;-72
2024/02/26 00:08:29;;;;;;;3.97;1.20;;;;;;;18.71;41.48;99715.63;5000085;28;20404;-72
2024/02/26 00:10:54;;;;;;;2.95;1.30;;;;;;;18.71;41.66;99714.78;5000463;28;20083;-71
2024/02/26 00:13:20;;;;;;;2.55;1.10;;;;;;;18.70;41.58;99718.41;5001037;28;20597;-71
2024/02/26 00:15:45;;;;;;;5.85;1.38;;;;;;;18.66;41.40;99716.09;4999143;28;20044;-72
2024/02/26 00:18:11;;;;;;;2.42;1.13;;;;;;;18.57;41.46;99697.72;5000492;28;20134;-71
2024/02/26 00:20:36;;;;;;;4.93;1.50;;;;;;;18.58;41.37;99700.19;5001221;28;20038;-72
2024/02/26 00:23:01;;;;;;;3.00;1.30;;;;;;;18.64;41.07;99715.41;4998714;28;20037;-71
2024/02/26 00:25:27;;;;;;;4.25;1.30;;;;;;;18.57;41.18;99700.34;5000279;28;20282;-71
2024/02/26 00:27:52;;;;;;;4.50;1.40;;;;;;;18.54;41.15;99701.47;5000695;28;20121;-73
2024/02/26 00:30:17;;;;;;;3.60;1.45;;;;;;;18.52;41.18;99689.41;4998400;28;20034;-70
2024/02/26 00:32:42;;;;;;;3.28;1.30;;;;;;;18.54;41.24;99703.31;5000233;28;20681;-70
2024/02/26 00:35:09;;;;;;;3.65;1.30;;;;;;;18.52;41.27;99706.09;5000189;28;20029;-71
2024/02/26 00:37:35;;;;;;;4.10;1.42;;;;;;;18.55;41.31;99707.56;4999344;28;20030;-70
2024/02/26 00:40:00;;;;;;;4.10;1.40;;;;;;;18.49;41.34;99693.22;4998776;28;20525;-70
2024/02/26 00:42:25;;;;;;;4.45;1.27;;;;;;;18.42;41.06;99681.59;5000813;28;20121;-71
2024/02/26 00:44:51;;;;;;;3.13;1.20;;;;;;;18.56;41.06;99704.78;4998409;28;20046;-70
2024/02/26 00:47:16;;;;;;;3.30;1.25;;;;;;;18.56;41.22;99701.31;4982372;28;20027;-71
2024/02/26 00:49:41;;;;;;;3.45;1.23;;;;;;;18.59;41.07;99701.03;4999596;28;20443;-71
2024/02/26 00:52:07;;;;;;;3.17;1.15;;;;;;;18.52;41.01;99697.34;4998837;28;20799;-70
2024/02/26 00:54:32;;;;;;;3.10;1.23;;;;;;;18.34;41.14;99666.56;5000432;28;20030;-70
2024/02/26 00:56:57;;;;;;;3.05;1.30;;;;;;;18.45;40.86;99676.03;4999881;28;20026;-71
2024/02/26 00:59:22;;;;;;;3.25;1.23;;;;;;;18.41;40.82;99674.69;4998790;28;20446;-70
2024/02/26 01:01:48;;;;;;;3.05;1.23;;;;;;;18.38;41.03;99673.19;4998458;28;20103;-71
2024/02/26 01:04:13;;;;;;;4.22;1.30;;;;;;;18.49;40.81;99695.84;4998754;28;20030;-71
2024/02/26 01:06:38;;;;;;;3.25;1.38;;;;;;;18.41;40.87;99688.69;4999742;28;20040;-70
2024/02/26 01:09:04;;;;;;;3.63;1.27;;;;;;;18.53;40.75;99713.00;4999443;28;20076;-70
2024/02/26 01:11:29;;;;;;;3.33;1.40;;;;;;;18.36;40.83;99687.50;4998339;28;20026;-70
2024/02/26 01:13:56;;;;;;;3.95;1.20;;;;;;;18.31;40.97;99686.16;4998356;28;20499;-70
2024/02/26 01:16:24;;;;;;;3.55;1.50;;;;;;;18.47;40.83;99721.56;4998594;28;20033;-71
2024/02/26 01:18:50;;;;;;;2.70;1.23;;;;;;;18.46;40.67;99711.97;4998734;28;20046;-70
2024/02/26 01:21:15;;;;;;;4.25;1.48;;;;;;;18.37;40.80;99700.53;4999636;28;20878;-70
2024/02/26 01:23:40;;;;;;;4.15;1.60;;;;;;;18.42;40.66;99707.97;4999965;28;20034;-70
2024/02/26 01:26:06;;;;;;;3.80;1.50;;;;;;;18.39;40.84;99711.78;4998768;28;20040;-70
2024/02/26 01:28:31;;;;;;;3.83;1.48;;;;;;;18.35;40.54;99714.88;4999075;28;20026;-71
2024/02/26 01:30:56;;;;;;;3.05;1.23;;;;;;;18.39;41.05;99729.41;4999079;28;20032;-70
2024/02/26 01:33:22;;;;;;;3.60;1.40;;;;;;;18.33;40.80;99711.56;4999309;28;20133;-70
2024/02/26 01:35:47;;;;;;;2.83;1.17;;;;;;;18.34;40.99;99719.34;4999117;28;20761;-70
2024/02/26 01:38:13;;;;;;;3.17;1.38;;;;;;;18.43;41.01;99728.13;4981968;28;20116;-70
2024/02/26 01:40:38;;;;;;;2.90;1.20;;;;;;;18.41;40.82;99727.44;4999331;28;20065;-71
2024/02/26 01:43:03;;;;;;;3.58;1.38;;;;;;;18.27;40.87;99716.44;4998813;28;20045;-71
2024/02/26 01:45:29;;;;;;;2.70;1.20;;;;;;;18.36;40.85;99730.56;4999267;28;20389;-71
2024/02/26 01:47:55;;;;;;;3.20;1.33;;;;;;;18.29;40.96;99719.78;4998355;28;20172;-70
2024/02/26 01:50:22;;;;;;;2.50;1.15;;;;;;;18.28;40.78;99719.94;4999567;28;20042;-70
2024/02/26 01:52:48;;;;;;;2.80;1.30;;;;;;;18.39;41.04;99739.94;4997842;28;20551;-70
2024/02/26 01:55:14;;;;;;;2.63;1.20;;;;;;;18.25;40.83;99721.06;4999059;28;20057;-70
2024/02/26 01:57:43;;;;;;;3.30;1.40;;;;;;;18.34;40.94;99739.59;4981204;28;20125;-70
2024/02/26 02:00:10;;;;;;;2.88;1.30;;;;;;;18.30;40.73;99734.59;4998398;28;20092;-71
2024/02/26 02:02:36;;;;;;;4.40;1.20;;;;;;;18.31;40.80;99738.09;4997103;28;20534;-70
2024/02/26 02:05:02;;;;;;;4.18;1.60;;;;;;;18.20;40.91;99719.84;4997126;28;20038;-70
2024/02/26 02:07:27;;;;;;;2.50;1.15;;;;;;;18.21;40.94;99722.34;4996850;28;20049;-70
2024/02/26 02:09:53;;;;;;;2.85;1.20;;;;;;;18.26;41.17;99738.56;4998037;28;20030;-70
2024/02/26 02:12:19;;;;;;;2.15;0.95;;;;;;;18.24;40.95;99737.84;4997404;28;20104;-70
2024/02/26 02:14:44;;;;;;;3.25;1.27;;;;;;;18.23;41.00;99738.84;4997695;28;20041;-70
2024/02/26 02:17:09;;;;;;;3.08;1.20;;;;;;;18.23;40.97;99735.38;4998222;28;20140;-70
2024/02/26 02:19:35;;;;;;;2.90;1.20;;;;;;;18.30;41.09;99744.34;4999562;28;20128;-70
2024/02/26 02:22:00;;;;;;;3.42;1.40;;;;;;;18.25;40.87;99741.34;4997358;28;20185;-70
2024/02/26 02:24:25;;;;;;;2.88;1.27;;;;;;;18.22;40.97;99741.63;4997960;28;20036;-71
2024/02/26 02:26:51;;;;;;;2.63;1.10;;;;;;;18.28;41.09;99749.78;4997692;28;20370;-70
2024/02/26 02:29:16;;;;;;;2.65;1.08;;;;;;;18.21;41.14;99738.16;4997221;28;20116;-70
2024/02/26 02:31:42;;;;;;;2.45;1.10;;;;;;;18.18;40.84;99733.19;4997331;28;20076;-71
2024/02/26 02:34:09;;;;;;;3.03;1.10;;;;;;;18.28;41.18;99748.94;4998155;28;20812;-70
2024/02/26 02:36:34;;;;;;;3.03;1.10;;;;;;;18.26;40.96;99750.88;4998132;28;20037;-70
2024/02/26 02:38:59;;;;;;;2.65;1.05;;;;;;;18.21;41.18;99748.69;4996322;28;20030;-71
2024/02/26 02:41:26;;;;;;;2.85;1.20;;;;;;;18.06;41.13;99726.50;4998491;28;20038;-70
2024/02/26 02:43:51;;;;;;;2.53;1.17;;;;;;;18.10;41.27;99736.59;4997141;28;20034;-70
2024/02/26 02:46:17;;;;;;;2.88;1.20;;;;;;;18.19;40.94;99744.59;4981634;28;20476;-70
2024/02/26 02:48:43;;;;;;;2.53;1.05;;;;;;;18.21;41.14;99751.34;4998517;28;20065;-70
2024/02/26 02:51:09;;;;;;;2.42;1.10;;;;;;;18.09;40.86;99734.94;4998003;28;20105;-70
2024/02/26 02:53:34;;;;;;;2.38;1.10;;;;;;;18.16;41.02;99750.16;4981151;28;20388;-71
2024/02/26 02:55:59;;;;;;;2.33;1.08;;;;;;;18.09;41.12;99740.22;4997612;28;20041;-70
2024/02/26 02:58:24;;;;;;;3.20;1.23;;;;;;;18.07;41.08;99733.41;4997119;28;20034;-70
2024/02/26 03:00:50;;;;;;;2.33;1.08;;;;;;;18.10;41.14;99738.38;5000555;28;20034;-70
2024/02/26 03:03:15;;;;;;;3.00;1.20;;;;;;;18.06;41.16;99737.06;5001313;28;20141;-71
2024/02/26 03:05:40;;;;;;;2.70;1.10;;;;;;;18.20;41.01;99754.97;5001028;28;20458;-71
2024/02/26 03:08:06;;;;;;;2.58;1.10;;;;;;;18.06;41.28;99726.50;5001753;28;20033;-70
2024/02/26 03:10:31;;;;;;;2.90;1.05;;;;;;;18.16;41.13;99744.88;5001833;28;20038;-71
2024/02/26 03:12:56;;;;;;;3.03;1.20;;;;;;;18.15;41.28;99748.50;4998947;28;20555;-70
2024/02/26 03:15:22;;;;;;;2.47;0.82;;;;;;;18.11;41.39;99745.34;5001472;28;20030;-71
2024/02/26 03:17:47;;;;;;;3.85;1.10;;;;;;;18.11;41.04;99747.97;5000509;28;20061;-70
2024/02/26 03:20:13;;;;;;;2.45;1.00;;;;;;;18.16;41.26;99755.44;5001760;28;20585;-70
2024/02/26 03:22:39;;;;;;;2.97;1.20;;;;;;;18.08;41.17;99750.91;5001902;28;20034;-70
2024/02/26 03:25:05;;;;;;;3.47;1.08;;;;;;;18.12;41.33;99749.63;5001143;28;20084;-70
2024/02/26 03:27:31;;;;;;;3.03;1.15;;;;;;;18.07;41.04;99746.59;5001618;28;20484;-70
2024/02/26 03:29:56;;;;;;;2.63;1.20;;;;;;;18.08;41.19;99754.34;5001775;28;20076;-71
2024/02/26 03:32:22;;;;;;;2.30;1.13;;;;;;;17.99;41.03;99733.34;5000603;28;20034;-70
2024/02/26 03:34:47;;;;;;;3.00;1.10;;;;;;;18.12;41.34;99760.19;5001639;28;20232;-70
2024/02/26 03:37:12;;;;;;;4.03;1.05;;;;;;;18.12;41.29;99757.53;5001927;28;20062;-70
2024/02/26 03:39:38;;;;;;;2.78;1.00;;;;;;;18.03;41.31;99740.81;5001161;28;20025;-70
2024/02/26 03:42:04;;;;;;;3.15;1.10;;;;;;;18.15;41.20;99762.53;5001212;28;20608;-70
2024/02/26 03:44:29;;;;;;;2.60;1.00;;;;;;;18.06;41.21;99753.69;5001439;28;20029;-70
2024/02/26 03:46:55;;;;;;;2.15;1.08;;;;;;;18.12;41.27;99762.81;5000421;28;20100;-71
2024/02/26 03:49:21;;;;;;;2.95;1.20;;;;;;;18.13;41.43;99756.53;5001004;28;20053;-70
2024/02/26 03:51:47;;;;;;;2.22;0.98;;;;;;;18.09;41.39;99752.56;5000140;28;20029;-70
2024/02/26 03:54:13;;;;;;;3.15;1.15;;;;;;;17.99;41.63;99734.19;5000143;28;20057;-71
2024/02/26 03:56:38;;;;;;;2.22;0.90;;;;;;;18.08;41.27;99756.19;5001117;28;20060;-70
2024/02/26 03:59:03;;;;;;;2.38;0.90;;;;;;;18.07;41.42;99752.72;5001056;28;20029;-70
2024/02/26 04:01:28;;;;;;;2.75;1.08;;;;;;;18.00;41.10;99742.91;5000055;28;20041;-70
2024/02/26 04:03:54;;;;;;;2.25;0.90;;;;;;;17.95;41.12;99738.09;4998707;28;20065;-70
2024/02/26 04:06:20;;;;;;;1.73;0.80;;;;;;;17.99;41.44;99738.63;4999217;28;20479;-70
2024/02/26 04:08:46;;;;;;;2.30;0.90;;;;;;;17.95;41.33;99735.47;4982110;28;20444;-70
2024/02/26 04:11:12;;;;;;;1.95;0.90;;;;;;;17.98;41.21;99744.88;4996078;28;20030;-70
2024/02/26 04:13:40;;;;;;;2.30;0.85;;;;;;;18.07;41.33;99767.69;4997317;28;20033;-70
2024/02/26 04:16:06;;;;;;;2.28;0.98;;;;;;;18.07;41.33;99765.91;4995979;28;20034;-70
2024/02/26 04:18:32;;;;;;;2.38;0.93;;;;;;;17.92;41.53;99736.59;4995669;28;20385;-70
2024/02/26 04:20:58;;;;;;;2.25;1.05;;;;;;;18.00;41.30;99751.66;4995688;28;20041;-71
2024/02/26 04:23:23;;;;;;;2.78;1.00;;;;;;;17.90;41.25;99738.53;4998481;28;20038;-70
2024/02/26 04:25:48;;;;;;;1.58;0.90;;;;;;;17.91;41.37;99739.38;4997779;28;20066;-71
2024/02/26 04:28:14;;;;;;;2.35;1.10;;;;;;;17.93;41.37;99758.50;4982690;28;20041;-70
2024/02/26 04:30:39;;;;;;;2.00;0.82;;;;;;;17.92;41.35;99757.66;4997365;28;20446;-70
2024/02/26 04:33:05;;;;;;;2.38;1.00;;;;;;;18.03;41.34;99772.44;4997748;28;20050;-70
2024/02/26 04:35:30;;;;;;;2.63;1.10;;;;;;;17.91;41.33;99749.91;4995948;28;20057;-71
2024/02/26 04:37:55;;;;;;;2.70;1.00;;;;;;;17.99;41.33;99781.66;4999645;28;20037;-70
2024/02/26 04:40:21;;;;;;;1.27;0.70;;;;;;;17.91;41.19;99771.84;4999933;28;20088;-70
2024/02/26 04:42:46;;;;;;;2.63;1.00;;;;;;;17.93;41.33;99771.69;4999614;28;20101;-70
2024/02/26 04:45:11;;;;;;;2.90;0.90;;;;;;;17.92;41.44;99773.47;4999181;28;20141;-70
2024/02/26 04:47:37;;;;;;;1.83;0.80;;;;;;;17.99;41.64;99794.81;5000123;28;20472;-70
2024/02/26 04:50:02;;;;;;;2.15;0.80;;;;;;;17.90;41.59;99772.00;5000019;28;20577;-70
2024/02/26 04:52:28;;;;;;;2.03;0.90;;;;;;;17.89;41.43;99784.31;4999478;28;20654;-70
2024/02/26 04:54:54;;;;;;;1.45;0.75;;;;;;;17.95;41.44;99796.91;4999344;28;20030;-70
2024/02/26 04:57:19;;;;;;;3.00;0.93;;;;;;;17.94;41.36;99789.16;5000172;28;20026;-70
2024/02/26 04:59:45;;;;;;;1.92;0.90;;;;;;;17.90;41.40;99791.25;4999603;28;20034;-70
2024/02/26 05:02:11;;;;;;;1.88;0.90;;;;;;;17.87;41.33;99778.34;4981769;28;20052;-70
2024/02/26 05:04:36;;;;;;;1.67;0.80;;;;;;;17.96;41.32;99784.59;4999468;28;20033;-70
2024/02/26 05:07:02;;;;;;;1.95;0.90;;;;;;;17.85;41.72;99758.38;4999764;28;21284;-70
2024/02/26 05:09:27;;;;;;;1.85;0.80;;;;;;;17.91;41.35;99786.81;5000614;28;20041;-70
2024/02/26 05:11:52;;;;;;;1.70;0.80;;;;;;;17.90;41.56;99780.72;4998928;28;20225;-70
2024/02/26 05:14:18;;;;;;;2.08;0.70;;;;;;;17.87;41.49;99772.25;4982782;28;20030;-70
2024/02/26 05:16:43;;;;;;;1.30;0.77;;;;;;;17.86;41.28;99781.94;4998912;28;20038;-70
2024/02/26 05:19:08;;;;;;;1.65;0.80;;;;;;;17.76;41.66;99762.75;4998697;28;20034;-70
2024/02/26 05:21:34;;;;;;;2.15;0.85;;;;;;;17.92;41.49;99791.13;4999715;28;20053;-70
2024/02/26 05:23:59;;;;;;;2.45;1.10;;;;;;;17.80;41.53;99777.31;4998686;28;20468;-70
2024/02/26 05:26:25;;;;;;;1.67;0.80;;;;;;;17.86;41.68;99784.59;4981730;28;20487;-70
2024/02/26 05:28:50;;;;;;;2.97;0.93;;;;;;;17.91;41.76;99802.63;4999182;28;20040;-70
2024/02/26 05:31:16;;;;;;;1.60;0.77;;;;;;;17.89;41.67;99796.69;4998210;28;20057;-70
2024/02/26 05:33:42;;;;;;;1.92;0.88;;;;;;;17.85;41.44;99796.13;4981882;28;20507;-70
2024/02/26 05:36:07;;;;;;;2.78;0.80;;;;;;;17.89;41.56;99799.31;4999148;28;20034;-70
2024/02/26 05:38:33;;;;;;;3.08;1.00;;;;;;;17.92;41.44;99813.03;4999297;28;20276;-70
2024/02/26 05:40:59;;;;;;;1.58;0.90;;;;;;;17.80;41.70;99794.91;4999255;28;20099;-70
2024/02/26 05:43:25;;;;;;;2.03;0.93;;;;;;;17.92;41.19;99825.38;4982033;28;20037;-70
2024/02/26 05:45:50;;;;;;;1.67;0.80;;;;;;;17.89;41.52;99817.78;4997969;28;20045;-70
2024/02/26 05:48:16;;;;;;;1.83;0.80;;;;;;;17.89;41.49;99821.22;4998532;28;20446;-71
2024/02/26 05:50:41;;;;;;;1.17;0.70;;;;;;;17.87;41.51;99823.16;4997226;28;20057;-70
2024/02/26 05:53:07;;;;;;;2.08;1.00;;;;;;;17.85;41.52;99822.47;4997169;28;20123;-71
2024/02/26 05:55:32;;;;;;;2.40;0.80;;;;;;;17.81;41.37;99822.91;4997534;28;20495;-70
2024/02/26 05:57:57;;;;;;;1.33;0.70;;;;;;;17.86;41.65;99834.66;4998218;28;20455;-70
2024/02/26 06:00:22;;;;;;;1.58;0.80;;;;;;;17.83;41.38;99836.78;4999435;28;20033;-70
2024/02/26 06:02:48;;;;;;;1.13;0.60;;;;;;;17.75;41.49;99824.31;4997023;28;20037;-71
2024/02/26 06:05:13;;;;;;;1.80;0.80;;;;;;;17.73;41.75;99829.75;4999496;28;20334;-70
2024/02/26 06:07:39;;;;;;;0.98;0.63;;;;;;;17.87;41.79;99852.16;4998002;28;20500;-70
2024/02/26 06:10:05;;;;;;;2.35;0.90;;;;;;;17.82;42.03;99851.75;4997395;28;20435;-70
2024/02/26 06:12:30;;;;;;;2.47;0.75;;;;;;;17.90;41.91;99853.72;4994607;28;20107;-69
2024/02/26 06:14:56;;;;;;;2.00;0.70;;;;;;;17.92;42.12;99859.66;4993752;28;20464;-70
2024/02/26 06:17:21;;;;;;;1.77;0.80;;;;;;;17.94;42.03;99858.53;4995241;28;20495;-70
2024/02/26 06:19:46;;;;;;;1.13;0.60;;;;;;;17.98;42.00;99871.44;4995877;28;20047;-70
2024/02/26 06:22:12;;;;;;;1.45;0.70;;;;;;;18.00;42.11;99870.28;4995590;28;20471;-70
2024/02/26 06:24:37;;;;;;;1.00;0.60;;;;;;;18.01;41.92;99866.69;4997786;28;20041;-70
2024/02/26 06:27:03;;;;;;;1.83;0.70;;;;;;;18.02;42.28;99870.97;4997707;28;20829;-70
2024/02/26 06:29:28;;;;;;;1.75;0.70;;;;;;;18.08;42.13;99874.81;4997875;28;20092;-70
2024/02/26 06:31:54;;;;;;;1.65;0.60;;;;;;;17.95;42.01;99859.34;4997500;28;20042;-70
2024/02/26 06:34:19;;;;;;;1.42;0.75;;;;;;;18.14;42.20;99887.41;4981640;28;20474;-71
2024/02/26 06:36:44;;;;;;;1.13;0.65;;;;;;;18.16;42.19;99892.56;5001838;28;20586;-70
2024/02/26 06:39:10;;;;;;;1.60;0.70;;;;;;;18.10;42.19;99878.97;5002061;28;20038;-71
2024/02/26 06:41:36;;;;;;;1.30;0.65;;;;;;;17.98;42.22;99855.59;5002128;28;20505;-71
2024/02/26 06:44:02;;;;;;;1.40;0.63;;;;;;;18.18;42.16;99893.22;5001508;28;20048;-71
2024/02/26 06:46:30;;;;;;;1.73;0.70;;;;;;;18.27;42.15;99900.25;5002791;28;20573;-67
2024/02/26 06:48:55;;;;;;;1.20;0.70;;;;;;;18.23;42.03;99888.31;4999599;28;20030;-70
2024/02/26 06:51:21;;;;;;;1.05;0.52;;;;;;;18.23;42.06;99889.19;5001727;28;20030;-70
2024/02/26 06:53:46;;;;;;;1.48;0.70;;;;;;;18.25;42.15;99895.13;5000999;28;20041;-69
2024/02/26 06:56:12;;;;;;;1.85;0.70;;;;;;;18.28;42.07;99905.38;4999596;28;20432;-70
2024/02/26 06:58:37;;;;;;;2.10;0.70;;;;;;;18.28;42.02;99897.47;4984500;28;20087;-70
2024/02/26 07:01:02;;;;;;;1.70;0.75;;;;;;;18.33;42.22;99910.22;4997025;28;20030;-69
2024/02/26 07:03:29;;;;;;;1.63;0.60;;;;;;;18.22;41.90;99902.50;4998478;28;20042;-70
2024/02/26 07:05:54;;;;;;;1.10;0.60;;;;;;;18.24;41.93;99911.91;5000795;28;20045;-70
2024/02/26 07:08:20;;;;;;;1.55;0.80;;;;;;;18.29;41.79;99912.31;5001966;28;20030;-70
2024/02/26 07:10:45;;;;;;;1.75;0.70;;;;;;;18.17;42.05;99897.69;5000449;28;20030;-70
2024/02/26 07:13:11;;;;;;;1.30;0.80;;;;;;;18.23;41.88;99907.63;5001165;28;20109;-70
2024/02/26 07:15:36;;;;;;;1.40;0.70;;;;;;;18.28;42.05;99917.75;5001361;28;20057;-70
2024/02/26 07:18:04;;;;;;;1.48;0.70;;;;;;;18.36;41.94;99935.44;5001174;28;20459;-70
2024/02/26 07:20:30;;;;;;;1.88;0.82;;;;;;;18.38;42.26;99936.97;4984094;28;20088;-71
2024/02/26 07:22:56;;;;;;;1.25;0.60;;;;;;;18.26;42.13;99917.03;5000038;28;20648;-71
2024/02/26 07:25:21;;;;;;;1.75;0.70;;;;;;;18.28;42.45;99928.28;5000674;28;20077;-69
2024/02/26 07:27:46;;;;;;;1.30;0.70;;;;;;;18.33;42.33;99938.41;5001356;28;20317;-70
2024/02/26 07:30:12;;;;;;;1.55;0.80;;;;;;;18.41;42.55;99959.59;5000951;28;20062;-70
2024/02/26 07:32:38;;;;;;;1.08;0.60;;;;;;;18.32;42.46;99948.09;5000085;28;20697;-69
2024/02/26 07:35:04;;;;;;;1.63;0.82;;;;;;;18.41;42.61;99970.16;5001476;28;20045;-70
2024/02/26 07:37:29;;;;;;;1.65;0.80;;;;;;;18.43;42.66;99970.81;4998426;28;20052;-71
2024/02/26 07:39:54;;;;;;;1.65;0.80;;;;;;;18.36;42.60;99956.53;4981702;28;20033;-70
2024/02/26 07:42:20;;;;;;;1.60;0.80;;;;;;;18.36;42.81;99953.91;4997418;28;20048;-72
2024/02/26 07:44:45;;;;;;;1.60;0.80;;;;;;;18.43;42.81;99979.56;4981270;28;20033;-70
2024/02/26 07:47:11;;;;;;;2.45;0.80;;;;;;;18.36;42.90;99970.59;4983697;28;20033;-70
2024/02/26 07:49:36;;;;;;;2.30;0.70;;;;;;;18.35;43.14;99966.28;5002040;28;20590;-72
2024/02/26 07:52:01;;;;;;;1.80;0.80;;;;;;;18.43;42.85;99981.38;4999979;28;20034;-70
2024/02/26 07:54:27;;;;;;;1.48;0.73;;;;;;;18.30;43.48;99961.44;5001593;28;20164;-71
2024/02/26 07:56:52;;;;;;;1.98;0.80;;;;;;;18.37;43.18;99976.69;5001703;28;20097;-71
2024/02/26 07:59:17;;;;;;;1.60;0.77;;;;;;;18.31;43.50;99965.75;5001674;28;20371;-71
2024/02/26 08:01:43;;;;;;;1.65;0.60;;;;;;;18.41;43.54;99984.16;4999928;28;20041;-71
2024/02/26 08:04:08;;;;;;;1.60;0.80;;;;;;;18.46;43.45;99994.28;4999358;28;20030;-71
2024/02/26 08:06:34;;;;;;;1.77;0.85;;;;;;;18.33;43.01;99980.63;5000755;28;20030;-71
2024/02/26 08:08:59;;;;;;;1.45;0.80;;;;;;;18.45;43.55;100017.19;5000500;28;20038;-72
2024/02/26 08:11:24;;;;;;;1.27;0.70;;;;;;;18.43;43.49;100002.47;5000983;28;20536;-71
2024/02/26 08:13:49;;;;;;;1.45;0.70;;;;;;;18.33;43.40;99996.44;4998936;28;20030;-71
2024/02/26 08:16:15;;;;;;;2.15;0.80;;;;;;;18.40;43.55;100006.22;5001658;28;20062;-71
2024/02/26 08:18:40;;;;;;;1.27;0.50;;;;;;;18.29;43.62;99996.72;5001043;28;20053;-71
2024/02/26 08:21:05;;;;;;;1.65;0.70;;;;;;;18.41;43.42;100015.00;5000377;28;20541;-71
2024/02/26 08:23:31;;;;;;;2.50;0.90;;;;;;;18.41;43.47;100018.47;4999610;28;20041;-70
2024/02/26 08:25:57;;;;;;;1.58;0.77;;;;;;;18.34;43.55;100017.41;4982665;28;20038;-71
2024/02/26 08:28:22;;;;;;;3.40;0.85;;;;;;;18.27;43.53;100003.94;5000865;28;20026;-71
2024/02/26 08:30:47;;;;;;;2.67;0.75;;;;;;;18.34;43.47;100022.66;5000838;28;20030;-71
2024/02/26 08:33:13;;;;;;;1.40;0.60;;;;;;;18.45;43.33;100040.09;4999596;28;20074;-72
2024/02/26 08:35:39;;;;;;;2.03;0.70;;;;;;;18.33;43.48;100026.28;5000107;28;20502;-70
2024/02/26 08:38:04;;;;;;;1.35;0.80;;;;;;;18.36;43.59;100027.78;5000332;28;20026;-70
2024/02/26 08:40:29;;;;;;;2.42;0.70;;;;;;;18.42;43.17;100043.03;5000650;28;20026;-70
2024/02/26 08:42:55;;;;;;;1.65;0.75;;;;;;;18.43;43.34;100050.78;4999157;28;20115;-70
2024/02/26 08:45:20;;;;;;;1.42;0.75;;;;;;;18.38;43.24;100047.75;5000573;28;20030;-71
2024/02/26 08:47:46;;;;;;;1.35;0.60;;;;;;;18.41;43.41;100051.94;5000235;28;20073;-71
2024/02/26 08:50:12;;;;;;;1.73;0.70;;;;;;;18.44;43.14;100062.19;5000454;28;20816;-70
2024/02/26 08:52:37;;;;;;;1.45;0.60;;;;;;;18.27;43.16;100035.59;5000010;28;20415;-69
2024/02/26 08:55:03;;;;;;;3.60;0.80;;;;;;;18.28;43.18;100039.91;5000193;28;20539;-70
2024/02/26 08:57:29;;;;;;;1.73;0.80;;;;;;;18.39;43.04;100059.13;4998792;28;20492;-71
2024/02/26 08:59:54;;;;;;;1.37;0.70;;;;;;;18.38;42.98;100060.97;5000343;28;20617;-71
2024/02/26 09:02:19;;;;;;;1.50;0.65;;;;;;;18.42;43.22;100072.91;4999031;28;20287;-70
2024/02/26 09:04:45;;;;;;;1.58;0.70;;;;;;;18.28;43.21;100052.25;4999054;28;20057;-70
2024/02/26 09:07:10;;;;;;;1.45;0.65;;;;;;;18.31;43.28;100065.16;4999835;28;20388;-70
2024/02/26 09:09:36;;;;;;;3.63;0.80;;;;;;;18.31;43.14;100059.88;5000271;28;20108;-70
2024/02/26 09:12:02;;;;;;;2.05;0.60;;;;;;;18.39;43.11;100082.88;4999951;28;20065;-70
2024/02/26 09:14:27;;;;;;;1.40;0.63;;;;;;;18.40;42.93;100093.28;5000366;28;20044;-70
2024/02/26 09:16:52;;;;;;;1.58;0.70;;;;;;;18.34;43.22;100082.50;4999033;28;20029;-70
2024/02/26 09:19:18;;;;;;;2.60;0.80;;;;;;;18.30;42.81;100074.88;4999854;28;20140;-70
2024/02/26 09:21:46;;;;;;;1.48;0.60;;;;;;;18.43;43.15;100095.63;4999801;28;20333;-71
2024/02/26 09:24:12;;;;;;;1.40;0.75;;;;;;;18.44;42.84;100114.97;4998298;28;20065;-71
2024/02/26 09:26:38;;;;;;;1.75;0.70;;;;;;;18.39;43.00;100107.47;5000083;28;20068;-70
2024/02/26 09:29:04;;;;;;;1.15;0.60;;;;;;;18.34;43.03;100106.22;4982120;28;20128;-70
2024/02/26 09:31:29;;;;;;;2.00;0.77;;;;;;;18.30;43.01;100105.69;4998261;28;20198;-70
2024/02/26 09:33:55;;;;;;;2.38;0.85;;;;;;;18.35;42.86;100111.38;4999558;28;20026;-71
2024/02/26 09:36:21;;;;;;;2.38;0.90;;;;;;;18.43;42.81;100116.75;5000613;28;20448;-70
2024/02/26 09:38:46;;;;;;;1.75;0.63;;;;;;;18.34;42.67;100109.72;4997723;28;20034;-70
2024/02/26 09:41:15;;;;;;;2.53;0.85;;;;;;;18.45;42.99;100128.00;4993509;28;20404;-74
2024/02/26 09:43:45;;;;;;;1.45;0.70;;;;;;;18.36;42.94;100115.69;4998978;28;20041;-73
2024/02/26 09:46:10;;;;;;;7.03;0.88;;;;;;;18.33;43.12;100118.59;4998195;28;20276;-69
2024/02/26 09:48:37;;;;;;;2.78;0.75;;;;;;;18.46;42.96;100144.66;4999493;28;20124;-74
2024/02/26 09:51:03;;;;;;;1.70;0.82;;;;;;;18.41;43.14;100134.53;4999334;28;20109;-71
2024/02/26 09:53:31;;;;;;;3.80;0.80;;;;;;;18.42;43.04;100141.50;4998353;28;20045;-71
2024/02/26 09:56:00;;;;;;;2.03;0.75;;;;;;;18.49;42.94;100139.91;4998863;28;20026;-68
2024/02/26 09:58:28;;;;;;;2.17;0.80;;;;;;;18.51;43.15;100136.31;4999727;28;20189;-68
2024/02/26 10:00:58;;;;;;;2.03;0.82;;;;;;;18.53;42.81;100139.63;4997104;28;20064;-69
2024/02/26 10:03:30;;;;;;;1.38;0.65;;;;;;;18.49;43.03;100131.19;4997620;28;20045;-70
2024/02/26 10:05:57;;;;;;;1.23;0.60;;;;;;;18.58;42.76;100151.44;4998480;28;20030;-73
2024/02/26 10:08:22;;;;;;;2.40;0.75;;;;;;;18.58;42.66;100151.44;4999637;28;20026;-71
2024/02/26 10:10:49;;;;;;;3.05;0.75;;;;;;;18.65;42.82;100184.16;4993238;28;20091;-71
2024/02/26 10:13:14;;;;;;;3.35;0.90;;;;;;;18.53;43.07;100150.19;4996540;28;20033;-70
2024/02/26 10:15:40;;;;;;;2.25;0.68;;;;;;;18.60;42.72;100177.69;4980261;28;20554;-73
2024/02/26 10:18:06;;;;;;;2.10;0.63;;;;;;;18.50;43.14;100169.78;4997428;28;20049;-72
2024/02/26 10:20:32;;;;;;;2.65;0.80;;;;;;;18.54;43.06;100179.06;4997293;28;20249;-75
2024/02/26 10:22:58;;;;;;;2.08;0.82;;;;;;;18.57;43.07;100194.63;4997998;28;20034;-75
2024/02/26 10:25:23;;;;;;;2.13;1.08;;;;;;;18.50;43.04;100180.34;4997157;28;20030;-75
2024/02/26 10:27:49;;;;;;;1.20;0.65;;;;;;;18.41;43.22;100179.38;4996322;28;20419;-77
2024/02/26 10:30:22;;;;;;;1.48;0.68;;;;;;;18.52;42.96;100198.66;4997976;28;20924;-76
2024/02/26 10:32:48;;;;;;;2.80;0.73;;;;;;;18.53;42.87;100210.88;4997411;28;20080;-79
2024/02/26 10:35:15;;;;;;;2.15;0.90;;;;;;;18.43;43.12;100187.97;4997360;28;20026;-80
2024/02/26 10:37:41;;;;;;;2.40;0.90;;;;;;;18.49;43.17;100205.88;4997866;28;20033;-75
2024/02/26 10:40:13;;;;;;;2.35;0.90;;;;;;;18.49;43.03;100207.69;4997821;28;20121;-75
2024/02/26 10:42:40;;;;;;;4.97;1.60;;;;;;;18.49;42.66;100221.72;4998037;28;20038;-73
2024/02/26 10:45:06;;;;;;;2.20;0.90;;;;;;;18.56;43.06;100231.69;4998058;28;20038;-73
2024/02/26 10:47:33;;;;;;;3.42;0.98;;;;;;;18.59;43.20;100244.63;4994641;28;20044;-70
2024/02/26 10:50:01;;;;;;;1.67;0.80;;;;;;;18.59;43.24;100253.34;4997098;28;20488;-78
2024/02/26 10:52:27;;;;;;;4.03;0.90;;;;;;;18.51;43.44;100250.59;4997734;28;20030;-74
2024/02/26 10:54:56;;;;;;;1.85;0.85;;;;;;;18.49;43.47;100244.63;4995017;28;20033;-78
2024/02/26 10:57:23;;;;;;;2.35;0.98;;;;;;;18.55;43.01;100277.53;4981080;28;20037;-75
2024/02/26 10:59:51;;;;;;;2.25;1.00;;;;;;;18.52;43.23;100259.34;4995531;28;20033;-74
2024/02/26 11:02:17;;;;;;;3.25;1.05;;;;;;;18.56;42.98;100268.66;4994017;28;20042;-72
2024/02/26 11:04:44;;;;;;;2.40;1.10;;;;;;;18.54;43.05;100262.69;4998093;28;20083;-73
2024/02/26 11:07:11;;;;;;;2.83;1.10;;;;;;;18.56;43.19;100274.75;5000253;28;20036;-73
2024/02/26 11:09:42;;;;;;;3.85;1.10;;;;;;;18.56;43.32;100279.22;4999574;28;20041;-73
2024/02/26 11:12:11;;;;;;;4.15;1.10;;;;;;;18.42;43.34;100254.94;4982492;28;20514;-75
2024/02/26 11:14:39;;;;;;;3.53;1.02;;;;;;;18.49;43.57;100276.31;4999422;28;20125;-75
2024/02/26 11:17:07;;;;;;;2.78;1.10;;;;;;;18.46;43.75;100266.84;4979628;28;20088;-76
2024/02/26 11:19:35;;;;;;;4.43;1.17;;;;;;;18.58;43.68;100286.03;4994822;28;20061;-73
2024/02/26 11:22:01;;;;;;;3.47;1.20;;;;;;;18.56;43.62;100287.13;4983124;28;20042;-74
2024/02/26 11:24:27;;;;;;;6.35;1.23;;;;;;;18.46;43.48;100266.84;4999878;28;20037;-73